Pagrindinis puslapis
METAR-TAF:

METAR-TAF

Oro uostai :

Meksikas, Meksika

platuma: 19-26N, ilguma: 099-06W, Aukštis: 2238 m

Dabartinis oras

Ataskaita buvo paskelbta 1 valandą ir 0 minutes, ne 04:46 UTC
Vėjas 5 kt iš Rytų/Šiaurės Rytų
Temperatūra 18°C
Drėgmė 39%
Slėgis 1030 hPa
Matomumas: 12.9 km
Giedras dangus

METAR: MMMX 230446Z 07005KT 8SM SKC 18/04 A3043 NOSIG RMK HZY ISOL AC

Laikas: 23:46 (05:46 UTC)

Prognozė

Ataskaita buvo paskelbta 1 valandą ir 23 minutes, ne 04:23 UTC
Prognozė galioja nuo 23 metu 06 UTC su 24 metu 12 UTC
Vėjas 6 kt iš Šiaurės/Šiaurės Vakarų
Matomumas: 10 km
Giedras dangus
Nuo 23 metu 1800 UTC
Vėjas 12 kt iš Vakarų
Matomumas: 10 km
Išsisklaidę debesys ne aukštis 2000 ft
Išsisklaidę debesys ne aukštis 8000 ft
Nuo 24 metu 0600 UTC
Vėjas 5 kt iš Vakarų/Šiaurės Vakarų
Matomumas: 10 km
Giedras dangus

TAF: MMMX 230423Z 2306/2412 34006KT P6SM SKC TX26/2321Z TN10/2312Z FM231800 26012KT P6SM SCT020 SCT080 FM240600 30005KT P6SM SKC

Orai ataskaitas ir orų prognozės (METAR, TAF).

turimą stotys yra geltonos ir raudonos taškus žemėlapyje.

Perkelti pele per norėdami pamatyti stoties vardą.

Tada spustelėkite, norėdami matyti oro stebėjimo ir prognozės.

Norėdami pakeisti žemėlapį: spustelėkite ant žalios mygtukų su juodo kryžiaus žemyn,; žalią mygtuką su brūkšneliu, jei norite nutolinti; arba žalių rodyklių gretimoms žemėlapius.


METAR-TAF: